Main page
METAR-TAF:

METAR-TAF

Airports :

Tehran, Iran

Mehrabad International Airport

latitude: 35-41N, longitude: 051-21E, elevation: 1204 m

Current weather observation

The report was made 35 minutes ago, at 19:00 UTC
Calm wind
Temperature 6°C
Humidity 45%
Pressure 1024 hPa
Visibility: 5000 m
haze

METAR: OIII 171900Z 00000KT 5000 HZ NSC 06/M05 Q1023 A3023 NOSIG

Time: 23:05 (19:35 UTC)

Forecast

The report was made 1 hour and 55 minutes ago, at 17:40 UTC
Forecast valid from 17 at 18 UTC to 18 at 24 UTC
Wind 6 kt from the Northwest
Visibility: 4000 m
haze
Temporary
from 18 at 03 UTC to 18 at 09 UTC
Visibility: 2000 m
haze

TAF: OIII 171740Z 1718/1824 32003MPS 4000 HZ NSC TEMPO 1803/1809 2000 HZ

Weather observations and forecasts of more than 4000 airports (METAR and TAF reports).

The available stations are represented by yellow and red dots on the map.

Hover mouse over dot to see the name of the station.

Then click to see weather observations and forecasts.

To change the map : click on the green buttons with a black cross to zoom in, on the green button with a dash to zoom out, or on the green arrows for adjacent maps.


METAR-TAF: